createdAt,value
2022-08-12T00:00:16.741Z,50.20
2022-08-12T00:03:21.350Z,50.40
2022-08-12T00:06:26.634Z,50.70
2022-08-12T00:09:30.458Z,51.00
2022-08-12T00:12:34.949Z,51.10
2022-08-12T00:15:38.768Z,50.90
2022-08-12T00:18:42.539Z,50.80
2022-08-12T00:21:46.414Z,51.00
2022-08-12T00:24:50.229Z,50.80
2022-08-12T00:27:54.403Z,51.10
2022-08-12T00:30:58.817Z,51.60
2022-08-12T00:34:05.393Z,51.60
2022-08-12T00:37:14.989Z,51.30
2022-08-12T00:40:19.885Z,51.50
2022-08-12T00:43:09.710Z,51.40
2022-08-12T00:46:15.012Z,51.90
2022-08-12T00:49:01.960Z,52.10
2022-08-12T00:52:06.384Z,51.90
2022-08-12T00:54:57.533Z,52.20
2022-08-12T00:57:48.938Z,52.00
2022-08-12T01:00:35.185Z,51.60
2022-08-12T01:03:20.899Z,51.90
2022-08-12T01:06:25.416Z,52.30
2022-08-12T01:09:29.389Z,51.60
2022-08-12T01:12:15.335Z,52.40
2022-08-12T01:15:01.903Z,52.50
2022-08-12T01:17:47.102Z,52.80
2022-08-12T01:20:48.149Z,52.90
2022-08-12T01:24:28.010Z,52.80
2022-08-12T01:27:18.997Z,53.10
2022-08-12T01:30:07.713Z,53.20
2022-08-12T01:32:56.030Z,53.30
2022-08-12T01:35:57.996Z,53.70
2022-08-12T01:38:57.613Z,53.30
2022-08-12T01:41:52.103Z,53.80
2022-08-12T01:44:39.953Z,53.20
2022-08-12T01:47:32.940Z,53.60
2022-08-12T01:50:34.636Z,53.70
2022-08-12T01:53:25.252Z,53.60
2022-08-12T01:56:11.402Z,53.80
2022-08-12T01:59:19.953Z,53.50
2022-08-12T02:02:11.313Z,53.80
2022-08-12T02:05:20.896Z,54.40
2022-08-12T02:08:42.134Z,54.30
2022-08-12T02:11:31.843Z,54.90
2022-08-12T02:14:37.691Z,55.10
2022-08-12T02:18:00.216Z,54.90
2022-08-12T02:21:17.405Z,54.80
2022-08-12T02:24:04.579Z,55.20
2022-08-12T02:26:51.532Z,55.00
2022-08-12T02:29:39.027Z,55.60
2022-08-12T02:32:24.306Z,55.30
2022-08-12T02:35:11.803Z,55.40
2022-08-12T02:37:59.871Z,55.40
2022-08-12T02:40:51.732Z,55.60
2022-08-12T02:43:46.155Z,55.90
2022-08-12T02:46:34.627Z,55.90
2022-08-12T02:49:29.922Z,56.00
2022-08-12T02:52:16.368Z,56.10
2022-08-12T02:55:34.901Z,56.20
2022-08-12T02:58:20.436Z,56.80
2022-08-12T03:01:24.385Z,56.20
2022-08-12T03:04:20.765Z,56.50
2022-08-12T03:07:38.108Z,56.40
2022-08-12T03:10:44.135Z,56.30
2022-08-12T03:13:36.479Z,56.70
2022-08-12T03:16:22.639Z,56.80
2022-08-12T03:19:08.743Z,56.90
2022-08-12T03:22:08.783Z,56.80
2022-08-12T03:24:58.329Z,57.20
2022-08-12T03:27:55.788Z,57.30
2022-08-12T03:30:43.818Z,57.10
2022-08-12T03:33:31.127Z,57.40
2022-08-12T03:36:21.159Z,57.10
2022-08-12T03:39:35.598Z,57.40
2022-08-12T03:42:38.744Z,57.60
2022-08-12T03:45:51.946Z,57.40
2022-08-12T03:48:59.684Z,57.50
2022-08-12T03:52:04.860Z,57.40
2022-08-12T03:55:09.255Z,57.50
2022-08-12T03:58:13.614Z,58.20
2022-08-12T04:00:59.234Z,58.10
2022-08-12T04:03:54.108Z,58.10
2022-08-12T04:06:47.190Z,58.50
2022-08-12T04:09:32.691Z,58.40
2022-08-12T04:12:36.649Z,58.60
2022-08-12T04:15:25.894Z,58.70
2022-08-12T04:18:18.016Z,58.90
2022-08-12T04:21:03.638Z,59.30
2022-08-12T04:23:49.201Z,59.60
2022-08-12T04:26:35.821Z,59.90
2022-08-12T04:29:22.697Z,59.90
2022-08-12T04:32:27.910Z,59.80
2022-08-12T04:35:13.486Z,59.60
2022-08-12T04:38:00.961Z,60.00
2022-08-12T04:40:47.016Z,60.40
2022-08-12T04:44:00.813Z,60.40
2022-08-12T04:46:37.533Z,60.70
2022-08-12T04:49:24.212Z,60.70
2022-08-12T04:52:09.788Z,60.90
2022-08-12T04:54:55.424Z,60.80
2022-08-12T04:57:40.797Z,60.80
2022-08-12T05:00:27.616Z,60.80
2022-08-12T05:03:14.022Z,61.20
2022-08-12T05:05:59.366Z,61.60
2022-08-12T05:08:44.687Z,61.20
2022-08-12T05:11:30.177Z,61.80
2022-08-12T05:14:16.308Z,61.70
2022-08-12T05:17:01.743Z,61.80
2022-08-12T05:19:52.198Z,61.80
2022-08-12T05:22:39.214Z,61.40
2022-08-12T05:25:25.095Z,62.50
2022-08-12T05:28:13.067Z,61.80
2022-08-12T05:31:01.633Z,61.60
2022-08-12T05:33:47.589Z,61.20
2022-08-12T05:36:33.312Z,61.60
2022-08-12T05:39:18.694Z,61.50
2022-08-12T05:42:04.419Z,61.80
2022-08-12T05:44:49.391Z,61.30
2022-08-12T05:47:53.290Z,62.20
2022-08-12T05:50:39.985Z,62.20
2022-08-12T05:53:25.038Z,61.80
2022-08-12T05:56:28.879Z,61.90
2022-08-12T05:59:14.459Z,61.70
2022-08-12T06:02:08.743Z,62.20
2022-08-12T06:05:00.232Z,62.00
2022-08-12T06:08:02.343Z,62.10
2022-08-12T06:10:50.151Z,61.90
2022-08-12T06:13:54.215Z,61.70
2022-08-12T06:16:40.072Z,62.10
2022-08-12T06:19:25.703Z,61.70
2022-08-12T06:22:31.042Z,61.60
2022-08-12T06:25:22.105Z,60.70
2022-08-12T06:28:17.291Z,61.20
2022-08-12T06:31:24.912Z,61.30
2022-08-12T06:35:25.183Z,60.90
2022-08-12T06:37:19.198Z,60.40
2022-08-12T06:40:06.485Z,60.40
2022-08-12T06:42:52.816Z,60.10
2022-08-12T06:45:49.423Z,60.00
2022-08-12T06:48:34.543Z,60.00
2022-08-12T06:51:20.673Z,60.00
2022-08-12T06:54:07.174Z,60.10
2022-08-12T06:58:06.399Z,60.10
2022-08-12T06:59:58.618Z,60.20
2022-08-12T07:02:46.673Z,60.10
2022-08-12T07:05:32.145Z,60.50
2022-08-12T07:08:18.201Z,59.90
2022-08-12T07:11:06.277Z,60.10
2022-08-12T07:14:11.164Z,59.70
2022-08-12T07:17:02.158Z,59.00
2022-08-12T07:19:48.567Z,59.30
2022-08-12T07:22:34.669Z,59.00
2022-08-12T07:25:41.197Z,58.90
2022-08-12T07:28:29.458Z,58.10
2022-08-12T07:31:17.381Z,57.90
2022-08-12T07:34:04.512Z,57.50
2022-08-12T07:36:50.073Z,57.40
2022-08-12T07:39:35.590Z,56.10
2022-08-12T07:42:20.980Z,55.50
2022-08-12T07:45:07.431Z,55.20
2022-08-12T07:47:52.894Z,53.90
2022-08-12T07:50:38.613Z,53.40
2022-08-12T07:53:23.782Z,53.40
2022-08-12T07:56:10.816Z,53.40
2022-08-12T07:58:59.381Z,53.70
2022-08-12T08:01:44.914Z,52.70
2022-08-12T08:04:48.819Z,52.40
2022-08-12T08:07:34.471Z,51.90
2022-08-12T08:10:20.396Z,51.40
2022-08-12T08:13:06.569Z,50.90
2022-08-12T08:16:02.990Z,50.40
2022-08-12T08:18:48.989Z,50.30
2022-08-12T08:21:35.376Z,50.50
2022-08-12T08:24:24.452Z,49.60
2022-08-12T08:27:10.943Z,50.20
2022-08-12T08:29:57.840Z,50.00
2022-08-12T08:32:43.147Z,49.00
2022-08-12T08:35:36.843Z,48.60
2022-08-12T08:38:35.216Z,49.20
2022-08-12T08:42:19.273Z,48.30
2022-08-12T08:44:45.128Z,47.80
2022-08-12T08:47:30.604Z,47.30
2022-08-12T08:50:16.187Z,47.70
2022-08-12T08:53:01.217Z,46.80
2022-08-12T08:56:04.782Z,46.30
2022-08-12T08:58:51.088Z,47.00
2022-08-12T09:01:38.671Z,46.60
2022-08-12T09:05:12.752Z,46.20
2022-08-12T09:10:36.547Z,45.70
2022-08-12T09:13:29.154Z,45.70
2022-08-12T09:16:36.704Z,45.40
2022-08-12T09:19:26.792Z,44.30
2022-08-12T09:22:18.491Z,44.70
2022-08-12T09:25:06.995Z,44.10
2022-08-12T09:28:03.385Z,44.00
2022-08-12T09:30:50.959Z,42.90
2022-08-12T09:34:28.504Z,43.00
2022-08-12T09:37:01.126Z,43.80
2022-08-12T09:40:00.858Z,43.80
2022-08-12T09:43:16.187Z,43.30
2022-08-12T09:46:19.597Z,42.90
2022-08-12T09:49:13.541Z,42.40
2022-08-12T09:52:02.065Z,43.10
2022-08-12T09:54:48.244Z,42.40
2022-08-12T09:58:46.195Z,42.70
2022-08-12T10:00:51.774Z,41.90
2022-08-12T10:03:55.481Z,42.60
2022-08-12T10:06:53.982Z,42.60
2022-08-12T10:09:57.978Z,43.10
2022-08-12T10:13:07.869Z,43.00
2022-08-12T10:16:02.480Z,42.40
2022-08-12T10:19:02.267Z,41.40
2022-08-12T10:21:47.853Z,40.70
2022-08-12T10:24:41.780Z,40.30
2022-08-12T10:28:04.781Z,40.40
2022-08-12T10:30:58.969Z,40.70
2022-08-12T10:34:04.954Z,40.50
2022-08-12T10:36:54.271Z,40.00
2022-08-12T10:40:05.731Z,39.60
2022-08-12T10:43:03.744Z,39.30
2022-08-12T10:45:58.489Z,38.30
2022-08-12T10:48:58.334Z,38.10
2022-08-12T10:52:04.112Z,38.30
2022-08-12T10:54:58.433Z,37.60
2022-08-12T10:58:13.471Z,38.10
2022-08-12T11:01:25.841Z,38.00
2022-08-12T11:04:28.359Z,38.00
2022-08-12T11:07:09.743Z,38.30
2022-08-12T11:10:05.731Z,38.30
2022-08-12T11:12:58.273Z,38.10
2022-08-12T11:16:18.811Z,37.30
2022-08-12T11:18:54.906Z,37.30
2022-08-12T11:21:57.537Z,37.40
2022-08-12T11:24:51.152Z,37.00
2022-08-12T11:27:37.484Z,36.80
2022-08-12T11:30:31.470Z,36.80
2022-08-12T11:33:24.010Z,37.40
2022-08-12T11:36:22.706Z,37.60
2022-08-12T11:39:07.959Z,36.10
2022-08-12T11:41:57.962Z,35.90
2022-08-12T11:44:44.933Z,36.00
2022-08-12T11:47:30.164Z,36.80
2022-08-12T11:50:19.552Z,35.50
2022-08-12T11:53:05.077Z,35.40
2022-08-12T11:56:11.485Z,35.50
2022-08-12T12:02:05.511Z,35.60
2022-08-12T12:04:52.664Z,35.50
2022-08-12T12:08:37.781Z,35.10
2022-08-12T12:10:54.084Z,35.10
2022-08-12T12:14:06.305Z,35.00
2022-08-12T12:16:49.992Z,35.20
2022-08-12T12:19:39.909Z,36.40
2022-08-12T12:22:31.666Z,36.00
2022-08-12T12:25:19.797Z,35.70
2022-08-12T12:28:06.868Z,35.00
2022-08-12T12:30:54.546Z,35.50
2022-08-12T12:33:56.746Z,35.20
2022-08-12T12:36:47.658Z,35.20
2022-08-12T12:39:55.498Z,35.70
2022-08-12T12:42:45.098Z,35.80
2022-08-12T12:45:45.823Z,35.30
2022-08-12T12:48:31.861Z,35.60
2022-08-12T12:51:49.324Z,35.40
2022-08-12T12:54:26.011Z,35.70
2022-08-12T12:57:14.636Z,35.50
2022-08-12T13:00:17.968Z,35.50
2022-08-12T13:03:03.170Z,35.70
2022-08-12T13:05:53.874Z,35.80
2022-08-12T13:08:40.019Z,36.10
2022-08-12T13:11:39.108Z,36.30
2022-08-12T13:14:27.880Z,36.40
2022-08-12T13:17:19.886Z,36.20
2022-08-12T13:20:05.713Z,36.20
2022-08-12T13:22:53.230Z,36.40
2022-08-12T13:25:41.590Z,36.60
2022-08-12T13:28:29.928Z,36.60
2022-08-12T13:31:17.743Z,36.40
2022-08-12T13:34:32.088Z,36.80
2022-08-12T13:37:10.220Z,36.10
2022-08-12T13:39:55.846Z,36.60
2022-08-12T13:42:41.591Z,35.70
2022-08-12T13:45:32.321Z,35.90
2022-08-12T13:48:19.895Z,35.70
2022-08-12T13:51:05.618Z,35.70
2022-08-12T13:53:59.156Z,35.40
2022-08-12T13:56:50.153Z,35.00
2022-08-12T13:59:48.301Z,35.70
2022-08-12T14:02:40.413Z,35.40
2022-08-12T14:05:38.419Z,35.80
2022-08-12T14:08:24.885Z,35.60
2022-08-12T14:11:13.168Z,35.00
2022-08-12T14:14:04.544Z,35.60
2022-08-12T14:16:58.231Z,35.40
2022-08-12T14:20:03.671Z,35.50
2022-08-12T14:22:49.742Z,34.80
2022-08-12T14:25:40.757Z,35.50
2022-08-12T14:28:32.278Z,35.90
2022-08-12T14:31:18.636Z,34.90
2022-08-12T14:34:05.074Z,35.40
2022-08-12T14:36:50.866Z,35.70
2022-08-12T14:39:36.450Z,35.80
2022-08-12T14:42:26.080Z,36.00
2022-08-12T14:45:11.320Z,36.30
2022-08-12T14:47:58.951Z,36.50
2022-08-12T14:51:09.705Z,35.90
2022-08-12T14:55:10.835Z,36.20
2022-08-12T14:58:00.491Z,36.40
2022-08-12T15:00:23.333Z,36.60
2022-08-12T15:03:14.339Z,36.70
2022-08-12T15:06:44.526Z,36.80
2022-08-12T15:09:16.006Z,36.90
2022-08-12T15:12:03.795Z,35.30
2022-08-12T15:14:49.593Z,34.80
2022-08-12T15:17:38.541Z,34.80
2022-08-12T15:20:33.033Z,35.50
2022-08-12T15:23:32.731Z,35.60
2022-08-12T15:26:20.653Z,35.90
2022-08-12T15:29:11.585Z,36.20
2022-08-12T15:32:02.056Z,36.60
2022-08-12T15:34:49.881Z,37.10
2022-08-12T15:38:08.891Z,36.90
2022-08-12T15:40:52.440Z,37.30
2022-08-12T15:44:17.056Z,37.20
2022-08-12T15:46:43.580Z,37.60
2022-08-12T15:49:28.767Z,36.60
2022-08-12T15:52:29.623Z,37.00
2022-08-12T15:55:16.754Z,37.70
2022-08-12T15:58:03.678Z,37.50
2022-08-12T16:00:51.976Z,37.20
2022-08-12T16:03:45.930Z,37.00
2022-08-12T16:07:04.208Z,37.80
2022-08-12T16:10:04.732Z,37.50
2022-08-12T16:12:54.410Z,37.40
2022-08-12T16:15:42.263Z,37.10
2022-08-12T16:18:37.356Z,37.70
2022-08-12T16:21:50.355Z,37.50
2022-08-12T16:24:28.812Z,37.40
2022-08-12T16:27:14.756Z,37.90
2022-08-12T16:30:00.222Z,37.90
2022-08-12T16:32:52.814Z,37.90
2022-08-12T16:35:40.784Z,37.80
2022-08-12T16:38:28.959Z,37.20
2022-08-12T16:41:14.073Z,36.40
2022-08-12T16:44:00.950Z,36.70
2022-08-12T16:46:57.642Z,37.00
2022-08-12T16:49:43.990Z,37.00
2022-08-12T16:52:29.214Z,37.30
2022-08-12T16:55:15.224Z,37.60
2022-08-12T16:58:01.667Z,37.70
2022-08-12T17:00:48.464Z,37.50
2022-08-12T17:03:37.604Z,37.70
2022-08-12T17:06:27.362Z,37.60
2022-08-12T17:09:16.909Z,37.80
2022-08-12T17:12:03.708Z,37.50
2022-08-12T17:14:52.996Z,37.80
2022-08-12T17:17:40.245Z,37.70
2022-08-12T17:20:34.054Z,37.60
2022-08-12T17:23:26.638Z,38.00
2022-08-12T17:26:19.182Z,38.20
2022-08-12T17:29:08.185Z,38.60
2022-08-12T17:32:01.355Z,38.90
2022-08-12T17:35:10.211Z,39.20
2022-08-12T17:38:09.306Z,39.30
2022-08-12T17:40:57.591Z,39.20
2022-08-12T17:43:54.855Z,39.00
2022-08-12T17:46:44.838Z,38.90
2022-08-12T17:50:02.124Z,38.80
2022-08-12T17:52:45.292Z,39.30
2022-08-12T17:55:44.305Z,39.30
2022-08-12T17:58:35.668Z,39.70
2022-08-12T18:01:24.204Z,40.30
2022-08-12T18:04:21.943Z,40.60
2022-08-12T18:07:13.021Z,40.60
2022-08-12T18:10:00.700Z,41.20
2022-08-12T18:12:52.251Z,41.70
2022-08-12T18:16:04.159Z,42.00
2022-08-12T18:18:48.986Z,42.30
2022-08-12T18:22:02.821Z,42.30
2022-08-12T18:24:40.035Z,42.40
2022-08-12T18:27:44.620Z,42.50
2022-08-12T18:30:35.809Z,42.70
2022-08-12T18:33:25.582Z,42.60
2022-08-12T18:36:13.121Z,42.90
2022-08-12T18:38:59.879Z,43.10
2022-08-12T18:41:46.825Z,43.60
2022-08-12T18:44:33.429Z,43.40
2022-08-12T18:47:20.723Z,43.30
2022-08-12T18:50:06.324Z,43.50
2022-08-12T18:52:56.976Z,43.70
2022-08-12T18:55:43.201Z,44.10
2022-08-12T18:58:59.509Z,44.40
2022-08-12T19:02:22.225Z,44.40
2022-08-12T19:04:57.337Z,44.50
2022-08-12T19:08:00.120Z,44.20
2022-08-12T19:10:50.076Z,44.00
2022-08-12T19:13:55.058Z,44.20
2022-08-12T19:16:44.299Z,43.90
2022-08-12T19:19:41.372Z,44.10
2022-08-12T19:22:28.855Z,44.10
2022-08-12T19:26:01.312Z,44.30
2022-08-12T19:28:35.260Z,44.30
2022-08-12T19:31:55.762Z,44.00
2022-08-12T19:36:07.858Z,44.10
2022-08-12T19:38:03.976Z,44.10
2022-08-12T19:40:54.722Z,44.80
2022-08-12T19:44:00.863Z,44.70
2022-08-12T19:46:52.986Z,45.00
2022-08-12T19:49:55.164Z,45.30
2022-08-12T19:52:41.706Z,45.40
2022-08-12T19:55:28.965Z,45.80
2022-08-12T19:58:21.894Z,45.90
2022-08-12T20:01:11.512Z,45.80
2022-08-12T20:03:59.965Z,46.00
2022-08-12T20:06:51.443Z,45.90
2022-08-12T20:09:39.959Z,46.00
2022-08-12T20:12:32.921Z,46.00
2022-08-12T20:15:21.908Z,46.10
2022-08-12T20:18:19.047Z,46.00
2022-08-12T20:21:17.046Z,46.00
2022-08-12T20:24:12.152Z,45.80
2022-08-12T20:27:00.157Z,45.90
2022-08-12T20:29:47.397Z,46.00
2022-08-12T20:32:57.151Z,45.80
2022-08-12T20:36:06.567Z,45.60
2022-08-12T20:38:51.092Z,45.70
2022-08-12T20:41:38.619Z,45.90
2022-08-12T20:44:28.582Z,46.20
2022-08-12T20:47:19.580Z,46.40
2022-08-12T20:50:07.987Z,46.50
2022-08-12T20:52:54.115Z,45.80
2022-08-12T20:55:42.691Z,45.70
2022-08-12T20:58:28.795Z,45.70
2022-08-12T21:01:15.381Z,45.70
2022-08-12T21:04:24.239Z,45.90
2022-08-12T21:07:11.520Z,46.20
2022-08-12T21:09:57.162Z,46.30
2022-08-12T21:12:42.779Z,46.50
2022-08-12T21:15:30.745Z,46.10
2022-08-12T21:18:33.317Z,46.70
2022-08-12T21:21:23.864Z,46.90
2022-08-12T21:24:31.782Z,46.80
2022-08-12T21:27:18.242Z,47.10
2022-08-12T21:30:06.192Z,47.20
2022-08-12T21:32:52.857Z,47.20
2022-08-12T21:35:39.937Z,47.60
2022-08-12T21:38:34.577Z,47.20
2022-08-12T21:41:20.574Z,47.20
2022-08-12T21:47:21.575Z,47.40
2022-08-12T21:50:14.139Z,47.50
2022-08-12T21:53:10.562Z,47.60
2022-08-12T21:55:57.426Z,47.80
2022-08-12T21:58:42.821Z,47.50
2022-08-12T22:01:28.346Z,48.00
2022-08-12T22:04:35.713Z,47.80
2022-08-12T22:07:27.666Z,48.20
2022-08-12T22:10:14.596Z,47.90
2022-08-12T22:13:01.146Z,48.20
2022-08-12T22:15:52.995Z,48.30
2022-08-12T22:18:42.530Z,48.30
2022-08-12T22:21:27.825Z,48.20
2022-08-12T22:24:25.683Z,47.90
2022-08-12T22:27:31.346Z,48.30
2022-08-12T22:30:36.940Z,48.10
2022-08-12T22:33:22.308Z,48.90
2022-08-12T22:36:10.726Z,48.10
2022-08-12T22:38:58.452Z,48.20
2022-08-12T22:42:03.533Z,48.40
2022-08-12T22:45:16.225Z,49.00
2022-08-12T22:48:01.881Z,49.20
2022-08-12T22:50:48.161Z,49.60
2022-08-12T22:53:36.055Z,49.90
2022-08-12T22:56:30.982Z,50.00
2022-08-12T22:59:16.809Z,50.00
2022-08-12T23:02:02.636Z,50.30
2022-08-12T23:04:48.160Z,50.60
2022-08-12T23:07:58.720Z,50.70
2022-08-12T23:10:42.602Z,50.90
2022-08-12T23:13:48.911Z,51.00
2022-08-12T23:16:41.525Z,51.20
2022-08-12T23:19:36.101Z,51.30
2022-08-12T23:22:36.666Z,51.60
2022-08-12T23:25:22.374Z,51.40
2022-08-12T23:28:36.908Z,51.00
2022-08-12T23:32:01.924Z,51.10
2022-08-12T23:34:36.043Z,51.00
2022-08-12T23:37:46.423Z,51.00
2022-08-12T23:40:29.008Z,51.00
2022-08-12T23:43:16.319Z,51.30
2022-08-12T23:46:08.739Z,51.40
2022-08-12T23:48:56.727Z,51.60
2022-08-12T23:51:42.036Z,51.70
2022-08-12T23:54:38.550Z,52.00
2022-08-12T23:57:26.496Z,52.00
